sensor_id;sensor_type;location;lat;lon;timestamp;pressure;altitude;pressure_sealevel;temperature;humidity
63916;BME280;50094;51.356;-0.196;2023-07-20T00:01:46;100889.82;;;25.00;35.77
63916;BME280;50094;51.356;-0.196;2023-07-20T00:04:13;100889.56;;;25.06;35.82
63916;BME280;50094;51.356;-0.196;2023-07-20T00:06:40;100885.94;;;25.05;35.81
63916;BME280;50094;51.356;-0.196;2023-07-20T00:09:07;100886.80;;;24.97;35.86
63916;BME280;50094;51.356;-0.196;2023-07-20T00:11:36;100886.49;;;25.11;35.74
63916;BME280;50094;51.356;-0.196;2023-07-20T00:14:05;100886.72;;;24.71;36.00
63916;BME280;50094;51.356;-0.196;2023-07-20T00:16:32;100884.28;;;24.63;35.68
63916;BME280;50094;51.356;-0.196;2023-07-20T00:18:59;100879.73;;;24.95;35.99
63916;BME280;50094;51.356;-0.196;2023-07-20T00:21:26;100882.96;;;25.15;35.78
63916;BME280;50094;51.356;-0.196;2023-07-20T00:23:54;100880.64;;;25.25;35.84
63916;BME280;50094;51.356;-0.196;2023-07-20T00:26:21;100881.30;;;25.17;36.23
63916;BME280;50094;51.356;-0.196;2023-07-20T00:28:51;100882.23;;;24.96;36.05
63916;BME280;50094;51.356;-0.196;2023-07-20T00:31:18;100882.65;;;24.74;36.40
63916;BME280;50094;51.356;-0.196;2023-07-20T00:33:45;100883.71;;;25.15;36.31
63916;BME280;50094;51.356;-0.196;2023-07-20T00:36:13;100883.59;;;25.68;35.74
63916;BME280;50094;51.356;-0.196;2023-07-20T00:38:39;100885.37;;;25.53;35.78
63916;BME280;50094;51.356;-0.196;2023-07-20T00:41:06;100884.70;;;25.04;36.18
63916;BME280;50094;51.356;-0.196;2023-07-20T00:43:33;100883.32;;;24.86;36.38
63916;BME280;50094;51.356;-0.196;2023-07-20T00:46:01;100880.63;;;25.01;36.36
63916;BME280;50094;51.356;-0.196;2023-07-20T00:48:29;100879.64;;;24.80;36.58
63916;BME280;50094;51.356;-0.196;2023-07-20T00:50:56;100880.13;;;25.41;36.24
63916;BME280;50094;51.356;-0.196;2023-07-20T00:53:25;100879.18;;;25.34;36.60
63916;BME280;50094;51.356;-0.196;2023-07-20T00:55:52;100879.33;;;24.87;36.68
63916;BME280;50094;51.356;-0.196;2023-07-20T00:58:20;100879.19;;;24.54;37.05
63916;BME280;50094;51.356;-0.196;2023-07-20T01:00:48;100877.56;;;25.07;36.72
63916;BME280;50094;51.356;-0.196;2023-07-20T01:03:14;100876.57;;;24.76;36.84
63916;BME280;50094;51.356;-0.196;2023-07-20T01:05:47;100878.96;;;24.95;36.87
63916;BME280;50094;51.356;-0.196;2023-07-20T01:08:21;100880.26;;;24.85;37.07
63916;BME280;50094;51.356;-0.196;2023-07-20T01:10:54;100879.13;;;24.65;36.72
63916;BME280;50094;51.356;-0.196;2023-07-20T01:13:24;100879.07;;;25.18;36.67
63916;BME280;50094;51.356;-0.196;2023-07-20T01:15:56;100875.65;;;25.18;36.73
63916;BME280;50094;51.356;-0.196;2023-07-20T01:18:24;100875.74;;;25.35;36.59
63916;BME280;50094;51.356;-0.196;2023-07-20T01:20:52;100877.53;;;24.94;36.80
63916;BME280;50094;51.356;-0.196;2023-07-20T01:23:46;100878.65;;;25.26;36.74
63916;BME280;50094;51.356;-0.196;2023-07-20T01:26:32;100875.28;;;24.69;37.28
63916;BME280;50094;51.356;-0.196;2023-07-20T01:29:17;100873.95;;;24.98;36.90
63916;BME280;50094;51.356;-0.196;2023-07-20T01:31:51;100873.95;;;24.89;37.04
63916;BME280;50094;51.356;-0.196;2023-07-20T01:34:19;100874.41;;;24.78;37.17
63916;BME280;50094;51.356;-0.196;2023-07-20T01:36:50;100875.01;;;24.53;37.16
63916;BME280;50094;51.356;-0.196;2023-07-20T01:39:19;100875.03;;;24.98;37.24
63916;BME280;50094;51.356;-0.196;2023-07-20T01:41:47;100874.03;;;24.88;37.12
63916;BME280;50094;51.356;-0.196;2023-07-20T01:44:15;100871.77;;;24.60;37.16
63916;BME280;50094;51.356;-0.196;2023-07-20T01:46:42;100874.49;;;25.08;37.16
63916;BME280;50094;51.356;-0.196;2023-07-20T01:49:09;100874.23;;;24.91;37.16
63916;BME280;50094;51.356;-0.196;2023-07-20T01:51:37;100871.07;;;24.99;37.08
63916;BME280;50094;51.356;-0.196;2023-07-20T01:54:03;100873.36;;;25.03;37.27
63916;BME280;50094;51.356;-0.196;2023-07-20T01:56:30;100877.64;;;24.92;37.36
63916;BME280;50094;51.356;-0.196;2023-07-20T01:58:57;100875.16;;;24.80;37.35
63916;BME280;50094;51.356;-0.196;2023-07-20T02:01:24;100875.63;;;24.94;37.43
63916;BME280;50094;51.356;-0.196;2023-07-20T02:03:51;100872.78;;;24.92;37.31
63916;BME280;50094;51.356;-0.196;2023-07-20T02:06:18;100870.63;;;25.45;37.25
63916;BME280;50094;51.356;-0.196;2023-07-20T02:08:44;100868.50;;;25.85;36.73
63916;BME280;50094;51.356;-0.196;2023-07-20T02:11:11;100865.19;;;25.15;37.15
63916;BME280;50094;51.356;-0.196;2023-07-20T02:13:38;100866.00;;;24.76;37.48
63916;BME280;50094;51.356;-0.196;2023-07-20T02:16:05;100862.69;;;25.10;37.31
63916;BME280;50094;51.356;-0.196;2023-07-20T02:18:32;100863.51;;;24.90;37.57
63916;BME280;50094;51.356;-0.196;2023-07-20T02:20:58;100863.10;;;25.15;37.26
63916;BME280;50094;51.356;-0.196;2023-07-20T02:23:25;100862.10;;;25.02;37.43
63916;BME280;50094;51.356;-0.196;2023-07-20T02:25:52;100861.67;;;25.03;37.45
63916;BME280;50094;51.356;-0.196;2023-07-20T02:28:19;100861.71;;;24.87;37.39
63916;BME280;50094;51.356;-0.196;2023-07-20T02:30:46;100863.07;;;25.32;37.41
63916;BME280;50094;51.356;-0.196;2023-07-20T02:33:13;100861.98;;;25.53;36.91
63916;BME280;50094;51.356;-0.196;2023-07-20T02:35:40;100865.88;;;24.84;37.43
63916;BME280;50094;51.356;-0.196;2023-07-20T02:38:07;100866.97;;;25.17;37.32
63916;BME280;50094;51.356;-0.196;2023-07-20T02:40:34;100865.48;;;25.21;37.35
63916;BME280;50094;51.356;-0.196;2023-07-20T02:43:01;100865.53;;;24.94;37.63
63916;BME280;50094;51.356;-0.196;2023-07-20T02:45:29;100868.66;;;24.83;37.53
63916;BME280;50094;51.356;-0.196;2023-07-20T02:47:56;100871.29;;;24.56;37.84
63916;BME280;50094;51.356;-0.196;2023-07-20T02:50:23;100869.22;;;25.35;37.74
63916;BME280;50094;51.356;-0.196;2023-07-20T02:52:50;100868.04;;;24.52;37.61
63916;BME280;50094;51.356;-0.196;2023-07-20T02:55:17;100868.54;;;24.92;37.77
63916;BME280;50094;51.356;-0.196;2023-07-20T02:57:44;100867.45;;;24.78;37.86
63916;BME280;50094;51.356;-0.196;2023-07-20T03:00:13;100866.82;;;25.05;37.81
63916;BME280;50094;51.356;-0.196;2023-07-20T03:02:40;100868.88;;;25.48;37.50
63916;BME280;50094;51.356;-0.196;2023-07-20T03:05:08;100863.53;;;25.35;37.15
63916;BME280;50094;51.356;-0.196;2023-07-20T03:07:36;100866.18;;;25.82;37.12
63916;BME280;50094;51.356;-0.196;2023-07-20T03:10:03;100864.29;;;25.31;37.41
63916;BME280;50094;51.356;-0.196;2023-07-20T03:12:30;100863.47;;;25.58;36.97
63916;BME280;50094;51.356;-0.196;2023-07-20T03:14:57;100863.01;;;25.25;37.76
63916;BME280;50094;51.356;-0.196;2023-07-20T03:17:24;100865.20;;;25.52;37.44
63916;BME280;50094;51.356;-0.196;2023-07-20T03:19:51;100862.33;;;25.33;37.17
63916;BME280;50094;51.356;-0.196;2023-07-20T03:22:18;100863.05;;;24.71;37.63
63916;BME280;50094;51.356;-0.196;2023-07-20T03:24:45;100862.98;;;25.02;37.34
63916;BME280;50094;51.356;-0.196;2023-07-20T03:27:12;100863.81;;;24.92;37.44
63916;BME280;50094;51.356;-0.196;2023-07-20T03:29:39;100865.05;;;25.26;37.35
63916;BME280;50094;51.356;-0.196;2023-07-20T03:32:07;100864.12;;;24.98;37.42
63916;BME280;50094;51.356;-0.196;2023-07-20T03:34:34;100865.03;;;25.06;37.97
63916;BME280;50094;51.356;-0.196;2023-07-20T03:37:01;100868.22;;;25.27;37.81
63916;BME280;50094;51.356;-0.196;2023-07-20T03:39:28;100868.39;;;25.35;37.86
63916;BME280;50094;51.356;-0.196;2023-07-20T03:41:54;100867.14;;;25.84;37.76
63916;BME280;50094;51.356;-0.196;2023-07-20T03:44:21;100867.46;;;25.38;37.88
63916;BME280;50094;51.356;-0.196;2023-07-20T03:46:49;100869.52;;;25.70;37.31
63916;BME280;50094;51.356;-0.196;2023-07-20T03:49:16;100868.69;;;25.21;37.36
63916;BME280;50094;51.356;-0.196;2023-07-20T03:51:43;100869.86;;;24.84;37.80
63916;BME280;50094;51.356;-0.196;2023-07-20T03:54:09;100871.03;;;25.26;37.90
63916;BME280;50094;51.356;-0.196;2023-07-20T03:56:36;100872.99;;;25.40;37.30
63916;BME280;50094;51.356;-0.196;2023-07-20T03:59:03;100871.60;;;25.52;37.08
63916;BME280;50094;51.356;-0.196;2023-07-20T04:01:30;100872.78;;;24.97;37.37
63916;BME280;50094;51.356;-0.196;2023-07-20T04:03:57;100871.46;;;25.33;37.25
63916;BME280;50094;51.356;-0.196;2023-07-20T04:06:24;100871.99;;;25.31;37.32
63916;BME280;50094;51.356;-0.196;2023-07-20T04:08:50;100874.46;;;25.11;37.58
63916;BME280;50094;51.356;-0.196;2023-07-20T04:11:17;100873.23;;;24.73;37.70
63916;BME280;50094;51.356;-0.196;2023-07-20T04:13:44;100879.33;;;24.63;38.45
63916;BME280;50094;51.356;-0.196;2023-07-20T04:16:11;100874.57;;;25.02;37.67
63916;BME280;50094;51.356;-0.196;2023-07-20T04:18:38;100875.76;;;25.02;37.47
63916;BME280;50094;51.356;-0.196;2023-07-20T04:21:05;100872.85;;;25.15;37.46
63916;BME280;50094;51.356;-0.196;2023-07-20T04:23:32;100870.80;;;25.00;37.31
63916;BME280;50094;51.356;-0.196;2023-07-20T04:25:59;100870.49;;;25.13;37.64
63916;BME280;50094;51.356;-0.196;2023-07-20T04:28:26;100867.87;;;24.99;38.12
63916;BME280;50094;51.356;-0.196;2023-07-20T04:30:53;100869.18;;;25.21;37.58
63916;BME280;50094;51.356;-0.196;2023-07-20T04:33:20;100869.88;;;25.22;37.30
63916;BME280;50094;51.356;-0.196;2023-07-20T04:35:49;100869.32;;;24.77;37.75
63916;BME280;50094;51.356;-0.196;2023-07-20T04:38:17;100867.31;;;25.10;37.63
63916;BME280;50094;51.356;-0.196;2023-07-20T04:40:45;100868.21;;;25.18;37.35
63916;BME280;50094;51.356;-0.196;2023-07-20T04:43:13;100869.00;;;25.07;37.37
63916;BME280;50094;51.356;-0.196;2023-07-20T04:45:40;100870.60;;;24.85;37.40
63916;BME280;50094;51.356;-0.196;2023-07-20T04:48:10;100869.84;;;25.03;37.15
63916;BME280;50094;51.356;-0.196;2023-07-20T04:50:37;100867.20;;;25.23;37.16
63916;BME280;50094;51.356;-0.196;2023-07-20T04:53:04;100869.68;;;25.00;37.15
63916;BME280;50094;51.356;-0.196;2023-07-20T04:55:31;100870.81;;;25.70;37.28
63916;BME280;50094;51.356;-0.196;2023-07-20T04:57:59;100870.02;;;25.38;38.16
63916;BME280;50094;51.356;-0.196;2023-07-20T05:00:27;100870.21;;;25.26;38.34
63916;BME280;50094;51.356;-0.196;2023-07-20T05:02:53;100870.96;;;25.48;38.25
63916;BME280;50094;51.356;-0.196;2023-07-20T05:05:20;100870.54;;;25.22;38.61
63916;BME280;50094;51.356;-0.196;2023-07-20T05:07:47;100869.12;;;25.31;38.61
63916;BME280;50094;51.356;-0.196;2023-07-20T05:10:15;100867.04;;;25.08;38.69
63916;BME280;50094;51.356;-0.196;2023-07-20T05:12:42;100867.16;;;25.34;38.60
63916;BME280;50094;51.356;-0.196;2023-07-20T05:15:09;100868.33;;;25.42;38.46
63916;BME280;50094;51.356;-0.196;2023-07-20T05:17:37;100871.50;;;25.36;38.57
63916;BME280;50094;51.356;-0.196;2023-07-20T05:20:05;100872.26;;;25.21;38.48
63916;BME280;50094;51.356;-0.196;2023-07-20T05:22:32;100873.56;;;25.21;38.06
63916;BME280;50094;51.356;-0.196;2023-07-20T05:24:59;100875.97;;;25.79;37.73
63916;BME280;50094;51.356;-0.196;2023-07-20T05:27:26;100879.63;;;25.29;37.61
63916;BME280;50094;51.356;-0.196;2023-07-20T05:29:53;100880.37;;;25.65;37.70
63916;BME280;50094;51.356;-0.196;2023-07-20T05:32:20;100877.06;;;26.12;37.45
63916;BME280;50094;51.356;-0.196;2023-07-20T05:34:46;100875.94;;;25.68;37.69
63916;BME280;50094;51.356;-0.196;2023-07-20T05:37:13;100873.53;;;25.92;37.44
63916;BME280;50094;51.356;-0.196;2023-07-20T05:39:40;100875.91;;;25.61;37.59
63916;BME280;50094;51.356;-0.196;2023-07-20T05:42:08;100876.10;;;25.98;37.40
63916;BME280;50094;51.356;-0.196;2023-07-20T05:44:35;100875.66;;;26.00;37.21
63916;BME280;50094;51.356;-0.196;2023-07-20T05:47:02;100873.90;;;25.68;37.05
63916;BME280;50094;51.356;-0.196;2023-07-20T05:49:30;100875.50;;;25.95;37.23
63916;BME280;50094;51.356;-0.196;2023-07-20T05:51:57;100875.23;;;25.66;36.96
63916;BME280;50094;51.356;-0.196;2023-07-20T05:54:24;100874.45;;;25.72;36.98
63916;BME280;50094;51.356;-0.196;2023-07-20T05:56:51;100875.71;;;25.53;36.89
63916;BME280;50094;51.356;-0.196;2023-07-20T05:59:19;100875.94;;;25.43;36.62
63916;BME280;50094;51.356;-0.196;2023-07-20T06:01:46;100873.70;;;25.21;36.88
63916;BME280;50094;51.356;-0.196;2023-07-20T06:04:13;100872.75;;;25.46;36.66
63916;BME280;50094;51.356;-0.196;2023-07-20T06:06:42;100873.12;;;25.58;36.70
63916;BME280;50094;51.356;-0.196;2023-07-20T06:09:09;100873.18;;;25.36;36.55
63916;BME280;50094;51.356;-0.196;2023-07-20T06:11:36;100874.00;;;25.62;36.52
63916;BME280;50094;51.356;-0.196;2023-07-20T06:14:04;100872.73;;;25.77;36.34
63916;BME280;50094;51.356;-0.196;2023-07-20T06:16:31;100874.33;;;25.83;36.12
63916;BME280;50094;51.356;-0.196;2023-07-20T06:18:59;100875.25;;;25.41;36.14
63916;BME280;50094;51.356;-0.196;2023-07-20T06:21:27;100877.18;;;25.37;36.30
63916;BME280;50094;51.356;-0.196;2023-07-20T06:23:54;100880.30;;;25.62;36.10
63916;BME280;50094;51.356;-0.196;2023-07-20T06:26:22;100880.41;;;25.29;36.21
63916;BME280;50094;51.356;-0.196;2023-07-20T06:28:49;100881.19;;;25.32;36.15
63916;BME280;50094;51.356;-0.196;2023-07-20T06:31:17;100884.20;;;25.61;36.16
63916;BME280;50094;51.356;-0.196;2023-07-20T06:33:44;100881.76;;;25.51;36.14
63916;BME280;50094;51.356;-0.196;2023-07-20T06:36:11;100880.28;;;25.55;36.12
63916;BME280;50094;51.356;-0.196;2023-07-20T06:38:38;100881.79;;;25.28;36.01
63916;BME280;50094;51.356;-0.196;2023-07-20T06:41:05;100881.36;;;25.19;36.06
63916;BME280;50094;51.356;-0.196;2023-07-20T06:43:32;100881.60;;;25.37;36.07
63916;BME280;50094;51.356;-0.196;2023-07-20T06:45:59;100882.08;;;25.22;36.22
63916;BME280;50094;51.356;-0.196;2023-07-20T06:48:26;100886.43;;;25.43;36.16
63916;BME280;50094;51.356;-0.196;2023-07-20T06:50:53;100888.52;;;25.12;36.03
63916;BME280;50094;51.356;-0.196;2023-07-20T06:53:20;100888.39;;;25.15;35.67
63916;BME280;50094;51.356;-0.196;2023-07-20T06:55:48;100886.48;;;25.37;35.71
63916;BME280;50094;51.356;-0.196;2023-07-20T06:58:15;100887.52;;;25.51;35.83
63916;BME280;50094;51.356;-0.196;2023-07-20T07:00:42;100887.23;;;25.49;35.80
63916;BME280;50094;51.356;-0.196;2023-07-20T07:03:10;100886.81;;;25.19;35.76
63916;BME280;50094;51.356;-0.196;2023-07-20T07:05:37;100886.33;;;25.47;35.71
63916;BME280;50094;51.356;-0.196;2023-07-20T07:08:05;100881.43;;;25.48;35.81
63916;BME280;50094;51.356;-0.196;2023-07-20T07:10:34;100883.57;;;25.35;35.51
63916;BME280;50094;51.356;-0.196;2023-07-20T07:13:01;100883.63;;;25.08;35.92
63916;BME280;50094;51.356;-0.196;2023-07-20T07:15:28;100885.07;;;25.67;35.53
63916;BME280;50094;51.356;-0.196;2023-07-20T07:17:55;100886.03;;;25.40;35.86
63916;BME280;50094;51.356;-0.196;2023-07-20T07:20:22;100885.17;;;25.53;35.71
63916;BME280;50094;51.356;-0.196;2023-07-20T07:22:50;100886.11;;;25.23;35.63
63916;BME280;50094;51.356;-0.196;2023-07-20T07:25:17;100884.52;;;25.41;36.09
63916;BME280;50094;51.356;-0.196;2023-07-20T07:27:45;100885.43;;;25.49;35.89
63916;BME280;50094;51.356;-0.196;2023-07-20T07:30:13;100882.75;;;25.26;35.71
63916;BME280;50094;51.356;-0.196;2023-07-20T07:32:40;100880.15;;;25.39;35.77
63916;BME280;50094;51.356;-0.196;2023-07-20T07:35:07;100883.44;;;25.19;35.68
63916;BME280;50094;51.356;-0.196;2023-07-20T07:37:34;100882.26;;;25.41;35.49
63916;BME280;50094;51.356;-0.196;2023-07-20T07:40:01;100881.32;;;25.82;35.18
63916;BME280;50094;51.356;-0.196;2023-07-20T07:42:29;100876.72;;;25.24;35.21
63916;BME280;50094;51.356;-0.196;2023-07-20T07:44:56;100878.86;;;25.35;35.36
63916;BME280;50094;51.356;-0.196;2023-07-20T07:47:24;100877.02;;;25.46;35.58
63916;BME280;50094;51.356;-0.196;2023-07-20T07:49:51;100876.24;;;25.58;35.35
63916;BME280;50094;51.356;-0.196;2023-07-20T07:52:18;100874.41;;;25.21;35.50
63916;BME280;50094;51.356;-0.196;2023-07-20T07:54:44;100872.30;;;25.44;35.57
63916;BME280;50094;51.356;-0.196;2023-07-20T07:57:11;100871.94;;;25.49;35.58
63916;BME280;50094;51.356;-0.196;2023-07-20T07:59:39;100870.37;;;25.00;35.66
63916;BME280;50094;51.356;-0.196;2023-07-20T08:02:06;100871.35;;;25.56;35.09
63916;BME280;50094;51.356;-0.196;2023-07-20T08:04:32;100870.74;;;25.49;35.24
63916;BME280;50094;51.356;-0.196;2023-07-20T08:06:59;100867.90;;;25.66;35.26
63916;BME280;50094;51.356;-0.196;2023-07-20T08:09:27;100866.50;;;25.68;35.01
63916;BME280;50094;51.356;-0.196;2023-07-20T08:11:54;100866.40;;;25.48;35.35
63916;BME280;50094;51.356;-0.196;2023-07-20T08:14:21;100863.71;;;25.80;35.30
63916;BME280;50094;51.356;-0.196;2023-07-20T08:16:47;100861.49;;;25.47;35.34
63916;BME280;50094;51.356;-0.196;2023-07-20T08:19:15;100864.89;;;25.27;35.25
63916;BME280;50094;51.356;-0.196;2023-07-20T08:21:42;100864.43;;;25.61;35.21
63916;BME280;50094;51.356;-0.196;2023-07-20T08:24:09;100863.32;;;25.87;35.24
63916;BME280;50094;51.356;-0.196;2023-07-20T08:26:35;100860.72;;;25.75;35.03
63916;BME280;50094;51.356;-0.196;2023-07-20T08:29:02;100860.55;;;25.51;34.85
63916;BME280;50094;51.356;-0.196;2023-07-20T08:31:29;100859.27;;;25.42;34.99
63916;BME280;50094;51.356;-0.196;2023-07-20T08:33:56;100863.32;;;25.37;34.68
63916;BME280;50094;51.356;-0.196;2023-07-20T08:36:23;100864.39;;;25.48;34.55
63916;BME280;50094;51.356;-0.196;2023-07-20T08:38:49;100862.65;;;25.42;34.28
63916;BME280;50094;51.356;-0.196;2023-07-20T08:41:16;100860.89;;;25.77;34.29
63916;BME280;50094;51.356;-0.196;2023-07-20T08:43:46;100866.98;;;25.56;34.51
63916;BME280;50094;51.356;-0.196;2023-07-20T08:46:15;100865.13;;;25.20;34.38
63916;BME280;50094;51.356;-0.196;2023-07-20T08:48:43;100861.37;;;25.50;33.88
63916;BME280;50094;51.356;-0.196;2023-07-20T08:51:11;100865.00;;;25.57;34.18
63916;BME280;50094;51.356;-0.196;2023-07-20T08:53:39;100865.44;;;25.37;34.53
63916;BME280;50094;51.356;-0.196;2023-07-20T08:56:08;100863.80;;;25.47;34.36
63916;BME280;50094;51.356;-0.196;2023-07-20T08:58:36;100863.15;;;26.10;34.17
63916;BME280;50094;51.356;-0.196;2023-07-20T09:01:04;100860.71;;;25.42;34.08
63916;BME280;50094;51.356;-0.196;2023-07-20T09:03:32;100862.31;;;25.70;34.16
63916;BME280;50094;51.356;-0.196;2023-07-20T09:06:00;100862.85;;;25.44;34.23
63916;BME280;50094;51.356;-0.196;2023-07-20T09:08:27;100862.37;;;25.95;34.15
63916;BME280;50094;51.356;-0.196;2023-07-20T09:10:54;100855.39;;;25.49;34.42
63916;BME280;50094;51.356;-0.196;2023-07-20T09:13:21;100855.84;;;25.69;34.40
63916;BME280;50094;51.356;-0.196;2023-07-20T09:15:53;100859.21;;;25.95;34.25
63916;BME280;50094;51.356;-0.196;2023-07-20T09:18:29;100861.00;;;25.62;34.19
63916;BME280;50094;51.356;-0.196;2023-07-20T09:20:58;100856.23;;;25.44;34.08
63916;BME280;50094;51.356;-0.196;2023-07-20T09:23:30;100853.72;;;25.66;33.99
63916;BME280;50094;51.356;-0.196;2023-07-20T09:25:58;100854.41;;;25.71;34.02
63916;BME280;50094;51.356;-0.196;2023-07-20T09:28:26;100851.61;;;25.50;34.24
63916;BME280;50094;51.356;-0.196;2023-07-20T09:30:54;100849.50;;;25.47;34.20
63916;BME280;50094;51.356;-0.196;2023-07-20T09:33:22;100847.83;;;25.82;33.97
63916;BME280;50094;51.356;-0.196;2023-07-20T09:35:49;100844.33;;;25.65;34.10
63916;BME280;50094;51.356;-0.196;2023-07-20T09:38:17;100841.99;;;25.86;34.16
63916;BME280;50094;51.356;-0.196;2023-07-20T09:40:44;100837.19;;;25.54;34.13
63916;BME280;50094;51.356;-0.196;2023-07-20T09:43:12;100846.20;;;25.62;33.93
63916;BME280;50094;51.356;-0.196;2023-07-20T09:45:43;100844.00;;;25.81;33.67
63916;BME280;50094;51.356;-0.196;2023-07-20T09:48:11;100842.86;;;25.79;33.50
63916;BME280;50094;51.356;-0.196;2023-07-20T09:50:40;100844.36;;;25.66;33.33
63916;BME280;50094;51.356;-0.196;2023-07-20T09:53:08;100843.53;;;25.40;33.36
63916;BME280;50094;51.356;-0.196;2023-07-20T09:55:36;100843.17;;;25.58;32.99
63916;BME280;50094;51.356;-0.196;2023-07-20T09:58:04;100839.83;;;25.71;32.96
63916;BME280;50094;51.356;-0.196;2023-07-20T10:00:33;100837.66;;;26.10;33.23
63916;BME280;50094;51.356;-0.196;2023-07-20T10:03:03;100829.15;;;25.44;33.22
63916;BME280;50094;51.356;-0.196;2023-07-20T10:05:33;100826.72;;;25.67;33.02
63916;BME280;50094;51.356;-0.196;2023-07-20T10:08:02;100825.94;;;25.82;33.18
63916;BME280;50094;51.356;-0.196;2023-07-20T10:10:32;100821.03;;;25.71;33.06
63916;BME280;50094;51.356;-0.196;2023-07-20T10:13:00;100820.81;;;25.62;33.17
63916;BME280;50094;51.356;-0.196;2023-07-20T10:15:32;100824.13;;;25.95;32.95
63916;BME280;50094;51.356;-0.196;2023-07-20T10:18:03;100826.74;;;25.67;33.04
63916;BME280;50094;51.356;-0.196;2023-07-20T10:20:36;100827.28;;;25.69;33.06
63916;BME280;50094;51.356;-0.196;2023-07-20T10:23:04;100824.70;;;25.65;32.80
63916;BME280;50094;51.356;-0.196;2023-07-20T10:25:31;100826.04;;;25.81;32.74
63916;BME280;50094;51.356;-0.196;2023-07-20T10:28:00;100816.81;;;25.52;32.87
63916;BME280;50094;51.356;-0.196;2023-07-20T10:30:28;100817.89;;;25.45;32.67
63916;BME280;50094;51.356;-0.196;2023-07-20T10:32:56;100819.71;;;25.92;32.66
63916;BME280;50094;51.356;-0.196;2023-07-20T10:35:23;100816.87;;;25.50;32.99
63916;BME280;50094;51.356;-0.196;2023-07-20T10:37:52;100814.08;;;25.61;33.03
63916;BME280;50094;51.356;-0.196;2023-07-20T10:40:28;100809.80;;;25.73;32.75
63916;BME280;50094;51.356;-0.196;2023-07-20T10:42:57;100814.26;;;25.80;32.63
63916;BME280;50094;51.356;-0.196;2023-07-20T10:45:34;100811.84;;;25.75;32.31
63916;BME280;50094;51.356;-0.196;2023-07-20T10:48:04;100810.86;;;25.76;31.73
63916;BME280;50094;51.356;-0.196;2023-07-20T10:50:32;100807.23;;;25.89;32.12
63916;BME280;50094;51.356;-0.196;2023-07-20T10:53:11;100804.42;;;25.58;32.30
63916;BME280;50094;51.356;-0.196;2023-07-20T10:55:39;100801.53;;;25.54;32.19
63916;BME280;50094;51.356;-0.196;2023-07-20T10:58:07;100799.55;;;25.55;32.45
63916;BME280;50094;51.356;-0.196;2023-07-20T11:00:35;100802.08;;;25.48;32.16
63916;BME280;50094;51.356;-0.196;2023-07-20T11:03:02;100798.51;;;25.44;32.05
63916;BME280;50094;51.356;-0.196;2023-07-20T11:05:35;100790.89;;;26.06;32.34
63916;BME280;50094;51.356;-0.196;2023-07-20T11:08:05;100788.74;;;25.47;32.73
63916;BME280;50094;51.356;-0.196;2023-07-20T11:10:32;100791.80;;;26.01;32.14
63916;BME280;50094;51.356;-0.196;2023-07-20T11:13:17;100791.91;;;25.78;31.73
63916;BME280;50094;51.356;-0.196;2023-07-20T11:15:45;100789.93;;;25.96;31.78
63916;BME280;50094;51.356;-0.196;2023-07-20T11:18:13;100790.40;;;25.99;31.34
63916;BME280;50094;51.356;-0.196;2023-07-20T11:20:41;100784.46;;;25.64;31.36
63916;BME280;50094;51.356;-0.196;2023-07-20T11:23:09;100779.66;;;25.62;31.78
63916;BME280;50094;51.356;-0.196;2023-07-20T11:25:38;100781.24;;;25.21;31.93
63916;BME280;50094;51.356;-0.196;2023-07-20T11:28:07;100778.99;;;25.84;31.56
63916;BME280;50094;51.356;-0.196;2023-07-20T11:30:36;100782.16;;;25.61;31.09
63916;BME280;50094;51.356;-0.196;2023-07-20T11:33:03;100781.93;;;25.30;31.13
63916;BME280;50094;51.356;-0.196;2023-07-20T11:35:31;100775.73;;;25.68;30.97
63916;BME280;50094;51.356;-0.196;2023-07-20T11:37:58;100774.35;;;25.89;31.14
63916;BME280;50094;51.356;-0.196;2023-07-20T11:40:26;100770.85;;;25.42;31.31
63916;BME280;50094;51.356;-0.196;2023-07-20T11:42:53;100774.67;;;25.37;31.26
63916;BME280;50094;51.356;-0.196;2023-07-20T11:45:20;100772.31;;;25.42;31.01
63916;BME280;50094;51.356;-0.196;2023-07-20T11:47:48;100772.30;;;25.54;31.14
63916;BME280;50094;51.356;-0.196;2023-07-20T11:50:15;100773.35;;;25.51;31.18
63916;BME280;50094;51.356;-0.196;2023-07-20T11:52:43;100768.50;;;25.95;30.66
63916;BME280;50094;51.356;-0.196;2023-07-20T11:55:11;100762.20;;;25.47;31.03
63916;BME280;50094;51.356;-0.196;2023-07-20T11:57:39;100765.14;;;25.72;30.86
63916;BME280;50094;51.356;-0.196;2023-07-20T12:00:06;100766.07;;;25.49;30.96
63916;BME280;50094;51.356;-0.196;2023-07-20T12:02:34;100763.40;;;25.70;30.38
63916;BME280;50094;51.356;-0.196;2023-07-20T12:05:02;100761.83;;;25.60;30.38
63916;BME280;50094;51.356;-0.196;2023-07-20T12:07:35;100756.54;;;25.46;30.44
63916;BME280;50094;51.356;-0.196;2023-07-20T12:10:04;100754.21;;;25.91;30.70
63916;BME280;50094;51.356;-0.196;2023-07-20T12:12:31;100756.19;;;25.67;30.68
63916;BME280;50094;51.356;-0.196;2023-07-20T12:15:13;100750.30;;;25.62;31.12
63916;BME280;50094;51.356;-0.196;2023-07-20T12:17:42;100748.84;;;26.03;30.98
63916;BME280;50094;51.356;-0.196;2023-07-20T12:20:11;100747.48;;;25.60;31.00
63916;BME280;50094;51.356;-0.196;2023-07-20T12:22:39;100748.49;;;25.76;30.62
63916;BME280;50094;51.356;-0.196;2023-07-20T12:25:07;100747.95;;;25.65;30.44
63916;BME280;50094;51.356;-0.196;2023-07-20T12:27:36;100745.14;;;25.53;30.46
63916;BME280;50094;51.356;-0.196;2023-07-20T12:30:05;100744.77;;;25.75;30.24
63916;BME280;50094;51.356;-0.196;2023-07-20T12:32:33;100744.85;;;25.57;30.31
63916;BME280;50094;51.356;-0.196;2023-07-20T12:35:00;100739.19;;;25.58;30.21
63916;BME280;50094;51.356;-0.196;2023-07-20T12:37:28;100740.17;;;25.78;30.10
63916;BME280;50094;51.356;-0.196;2023-07-20T12:39:56;100737.57;;;25.82;30.21
63916;BME280;50094;51.356;-0.196;2023-07-20T12:42:22;100738.48;;;25.36;30.41
63916;BME280;50094;51.356;-0.196;2023-07-20T12:44:49;100736.29;;;25.89;30.13